createdAt,value
2023-02-14T00:01:11.361Z,10.50
2023-02-14T00:03:38.764Z,10.70
2023-02-14T00:06:12.277Z,10.30
2023-02-14T00:08:41.080Z,10.30
2023-02-14T00:11:09.018Z,10.37
2023-02-14T00:13:36.402Z,11.13
2023-02-14T00:16:03.570Z,9.17
2023-02-14T00:18:49.533Z,10.33
2023-02-14T00:21:16.435Z,10.90
2023-02-14T00:23:43.508Z,11.20
2023-02-14T00:26:15.232Z,10.70
2023-02-14T00:28:43.515Z,11.57
2023-02-14T00:31:10.876Z,10.80
2023-02-14T00:33:38.014Z,11.00
2023-02-14T00:36:07.070Z,12.00
2023-02-14T00:38:34.826Z,11.93
2023-02-14T00:41:02.201Z,11.70
2023-02-14T00:43:29.209Z,11.10
2023-02-14T00:45:57.482Z,10.90
2023-02-14T00:48:24.575Z,10.90
2023-02-14T00:50:51.532Z,11.00
2023-02-14T00:53:18.445Z,12.53
2023-02-14T00:55:47.053Z,12.20
2023-02-14T00:58:15.099Z,12.40
2023-02-14T01:00:42.072Z,11.37
2023-02-14T01:03:09.054Z,11.50
2023-02-14T01:05:36.285Z,12.40
2023-02-14T01:08:04.722Z,12.63
2023-02-14T01:10:31.780Z,12.60
2023-02-14T01:12:58.984Z,12.27
2023-02-14T01:15:27.949Z,11.03
2023-02-14T01:17:54.891Z,12.00
2023-02-14T01:20:21.853Z,12.43
2023-02-14T01:22:48.899Z,12.80
2023-02-14T01:25:16.016Z,12.53
2023-02-14T01:27:42.946Z,13.07
2023-02-14T01:30:10.974Z,15.60
2023-02-14T01:32:37.908Z,13.20
2023-02-14T01:35:05.328Z,13.00
2023-02-14T01:37:32.292Z,14.20
2023-02-14T01:39:59.467Z,13.13
2023-02-14T01:42:26.595Z,12.20
2023-02-14T01:45:08.838Z,12.70
2023-02-14T01:47:41.588Z,11.97
2023-02-14T01:50:39.292Z,12.70
2023-02-14T01:53:17.140Z,12.00
2023-02-14T01:55:51.561Z,13.77
2023-02-14T01:58:24.286Z,12.47
2023-02-14T02:00:57.250Z,11.93
2023-02-14T02:03:46.537Z,11.53
2023-02-14T02:06:40.980Z,11.70
2023-02-14T02:09:24.530Z,13.37
2023-02-14T02:11:51.484Z,13.00
2023-02-14T02:14:22.193Z,13.00
2023-02-14T02:17:10.785Z,13.47
2023-02-14T02:20:29.777Z,13.77
2023-02-14T02:23:46.211Z,13.27
2023-02-14T02:26:46.301Z,13.93
2023-02-14T02:30:04.105Z,14.03
2023-02-14T02:33:17.366Z,14.77
2023-02-14T02:35:58.708Z,12.93
2023-02-14T02:39:03.549Z,14.00
2023-02-14T02:42:08.221Z,13.77
2023-02-14T02:45:10.634Z,13.43
2023-02-14T02:47:47.007Z,14.77
2023-02-14T02:51:04.675Z,14.50
2023-02-14T02:53:58.950Z,13.77
2023-02-14T02:56:46.123Z,13.33
2023-02-14T02:59:30.366Z,14.00
2023-02-14T03:02:23.163Z,14.07
2023-02-14T03:05:00.867Z,13.13
2023-02-14T03:07:39.123Z,13.43
2023-02-14T03:10:30.882Z,14.77
2023-02-14T03:13:13.864Z,15.13
2023-02-14T03:16:14.757Z,14.10
2023-02-14T03:19:18.975Z,15.20
2023-02-14T03:22:49.286Z,14.90
2023-02-14T03:25:59.737Z,14.07
2023-02-14T03:28:43.275Z,15.73
2023-02-14T03:31:24.528Z,15.20
2023-02-14T03:34:02.967Z,15.17
2023-02-14T03:36:49.367Z,16.40
2023-02-14T03:39:28.245Z,16.80
2023-02-14T03:42:13.951Z,16.77
2023-02-14T03:44:45.107Z,16.17
2023-02-14T03:47:23.407Z,14.33
2023-02-14T03:50:10.234Z,15.43
2023-02-14T03:52:38.957Z,15.60
2023-02-14T03:55:08.575Z,16.97
2023-02-14T03:57:54.455Z,16.63
2023-02-14T04:00:21.439Z,16.57
2023-02-14T04:03:01.170Z,15.00
2023-02-14T04:05:28.646Z,15.57
2023-02-14T04:07:58.493Z,15.20
2023-02-14T04:10:25.996Z,14.47
2023-02-14T04:12:53.625Z,15.03
2023-02-14T04:15:20.550Z,15.23
2023-02-14T04:18:05.741Z,14.50
2023-02-14T04:20:32.666Z,13.90
2023-02-14T04:23:00.891Z,13.97
2023-02-14T04:25:29.696Z,12.87
2023-02-14T04:27:56.624Z,14.43
2023-02-14T04:30:23.556Z,11.90
2023-02-14T04:32:50.525Z,14.27
2023-02-14T04:35:17.520Z,13.40
2023-02-14T04:37:45.619Z,13.30
2023-02-14T04:40:16.761Z,13.30
2023-02-14T04:42:45.474Z,13.33
2023-02-14T04:45:12.877Z,13.10
2023-02-14T04:47:39.965Z,11.93
2023-02-14T04:50:07.826Z,13.03
2023-02-14T04:52:34.735Z,13.63
2023-02-14T04:55:01.839Z,14.80
2023-02-14T04:57:28.770Z,14.70
2023-02-14T04:59:55.723Z,13.43
2023-02-14T05:02:22.685Z,14.10
2023-02-14T05:04:49.926Z,13.60
2023-02-14T05:07:17.047Z,14.10
2023-02-14T05:09:44.000Z,13.50
2023-02-14T05:12:11.048Z,13.83
2023-02-14T05:14:37.927Z,13.67
2023-02-14T05:17:04.832Z,12.97
2023-02-14T05:19:31.719Z,15.27
2023-02-14T05:21:58.614Z,14.80
2023-02-14T05:24:25.489Z,15.73
2023-02-14T05:26:52.476Z,17.73
2023-02-14T05:29:19.354Z,19.30
2023-02-14T05:31:46.374Z,20.20
2023-02-14T05:34:13.317Z,19.47
2023-02-14T05:36:40.294Z,20.80
2023-02-14T05:39:07.161Z,18.90
2023-02-14T05:41:34.149Z,19.73
2023-02-14T05:44:01.082Z,20.80
2023-02-14T05:46:27.973Z,18.87
2023-02-14T05:48:54.865Z,21.07
2023-02-14T05:51:21.819Z,21.30
2023-02-14T05:53:48.704Z,21.27
2023-02-14T05:56:15.597Z,21.73
2023-02-14T05:58:42.452Z,22.87
2023-02-14T06:01:09.367Z,24.27
2023-02-14T06:03:36.220Z,23.17
2023-02-14T06:06:03.347Z,21.33
2023-02-14T06:08:30.222Z,22.50
2023-02-14T06:10:57.183Z,22.80
2023-02-14T06:13:24.862Z,21.77
2023-02-14T06:15:51.761Z,21.80
2023-02-14T06:18:18.691Z,24.10
2023-02-14T06:20:45.590Z,25.23
2023-02-14T06:23:12.518Z,21.10
2023-02-14T06:25:39.389Z,21.63
2023-02-14T06:28:06.644Z,21.40
2023-02-14T06:30:33.694Z,21.17
2023-02-14T06:33:00.714Z,23.30
2023-02-14T06:35:27.556Z,22.77
2023-02-14T06:37:54.443Z,21.73
2023-02-14T06:40:21.838Z,21.43
2023-02-14T06:42:48.701Z,23.37
2023-02-14T06:45:15.591Z,23.40
2023-02-14T06:47:42.486Z,25.20
2023-02-14T06:50:11.625Z,24.27
2023-02-14T06:52:38.987Z,25.23
2023-02-14T06:55:06.198Z,23.53
2023-02-14T06:57:33.077Z,23.53
2023-02-14T06:59:59.944Z,23.10
2023-02-14T07:02:26.825Z,23.60
2023-02-14T07:04:53.656Z,25.03
2023-02-14T07:07:20.514Z,24.17
2023-02-14T07:09:47.428Z,23.67
2023-02-14T07:12:14.333Z,24.73
2023-02-14T07:14:41.189Z,23.70
2023-02-14T07:17:08.070Z,25.00
2023-02-14T07:19:35.157Z,24.93
2023-02-14T07:22:02.044Z,24.60
2023-02-14T07:24:28.948Z,23.30
2023-02-14T07:26:55.867Z,23.83
2023-02-14T07:29:22.756Z,24.50
2023-02-14T07:31:49.890Z,24.93
2023-02-14T07:34:16.835Z,25.30
2023-02-14T07:36:44.186Z,24.30
2023-02-14T07:39:11.581Z,24.17
2023-02-14T07:41:38.714Z,24.70
2023-02-14T07:44:09.955Z,26.17
2023-02-14T07:46:36.986Z,24.50
2023-02-14T07:49:03.979Z,25.10
2023-02-14T07:51:31.002Z,23.80
2023-02-14T07:53:58.224Z,24.50
2023-02-14T07:56:25.119Z,24.17
2023-02-14T07:58:52.012Z,23.50
2023-02-14T08:01:19.115Z,22.30
2023-02-14T08:03:49.350Z,26.00
2023-02-14T08:06:20.690Z,22.83
2023-02-14T08:08:48.441Z,24.13
2023-02-14T08:11:35.370Z,24.10
2023-02-14T08:14:02.482Z,22.57
2023-02-14T08:16:29.393Z,23.43
2023-02-14T08:18:56.356Z,23.37
2023-02-14T08:21:23.236Z,23.53
2023-02-14T08:23:50.191Z,24.50
2023-02-14T08:26:17.286Z,24.90
2023-02-14T08:28:44.675Z,23.50
2023-02-14T08:31:11.979Z,23.77
2023-02-14T08:33:38.912Z,23.77
2023-02-14T08:36:06.090Z,23.23
2023-02-14T08:38:32.985Z,26.17
2023-02-14T08:41:03.334Z,24.70
2023-02-14T08:43:34.204Z,22.80
2023-02-14T08:46:01.902Z,24.83
2023-02-14T08:48:29.344Z,24.50
2023-02-14T08:50:56.286Z,24.10
2023-02-14T08:53:23.522Z,24.60
2023-02-14T08:55:50.397Z,25.67
2023-02-14T08:58:17.358Z,25.10
2023-02-14T09:00:44.245Z,26.40
2023-02-14T09:03:11.209Z,26.10
2023-02-14T09:05:38.125Z,27.00
2023-02-14T09:08:05.200Z,25.67
2023-02-14T09:10:32.119Z,25.20
2023-02-14T09:12:58.993Z,24.10
2023-02-14T09:15:25.864Z,26.43
2023-02-14T09:17:52.770Z,25.67
2023-02-14T09:20:19.748Z,24.93
2023-02-14T09:22:48.647Z,25.90
2023-02-14T09:25:16.378Z,26.10
2023-02-14T09:27:43.511Z,25.50
2023-02-14T09:30:11.260Z,26.23
2023-02-14T09:32:38.198Z,24.80
2023-02-14T09:35:05.349Z,25.13
2023-02-14T09:37:50.923Z,26.30
2023-02-14T09:40:20.183Z,25.20
2023-02-14T09:43:05.088Z,25.57
2023-02-14T09:45:34.058Z,27.67
2023-02-14T09:48:15.092Z,28.80
2023-02-14T09:50:59.090Z,26.13
2023-02-14T09:53:42.833Z,26.97
2023-02-14T09:56:27.499Z,25.40
2023-02-14T09:59:16.585Z,26.73
2023-02-14T10:01:54.791Z,27.90
2023-02-14T10:04:49.913Z,27.50
2023-02-14T10:08:00.820Z,26.90
2023-02-14T10:11:04.578Z,27.67
2023-02-14T10:13:49.554Z,28.37
2023-02-14T10:16:33.889Z,29.07
2023-02-14T10:19:07.946Z,27.60
2023-02-14T10:21:42.595Z,26.93
2023-02-14T10:24:35.472Z,27.87
2023-02-14T10:27:32.153Z,26.53
2023-02-14T10:29:59.125Z,27.87
2023-02-14T10:32:40.654Z,27.27
2023-02-14T10:35:35.825Z,26.03
2023-02-14T10:39:04.939Z,27.00
2023-02-14T10:41:54.083Z,25.50
2023-02-14T10:44:46.289Z,26.27
2023-02-14T10:47:36.853Z,26.50
2023-02-14T10:50:19.466Z,24.30
2023-02-14T10:53:08.596Z,27.80
2023-02-14T10:55:46.647Z,28.00
2023-02-14T10:58:18.263Z,27.87
2023-02-14T11:00:58.126Z,27.40
2023-02-14T11:03:26.022Z,26.30
2023-02-14T11:05:52.899Z,27.30
2023-02-14T11:08:29.067Z,26.30
2023-02-14T11:11:21.419Z,25.20
2023-02-14T11:13:48.850Z,24.70
2023-02-14T11:16:36.302Z,28.53
2023-02-14T11:19:25.368Z,28.00
2023-02-14T11:21:55.788Z,30.37
2023-02-14T11:24:32.984Z,29.80
2023-02-14T11:27:10.600Z,28.80
2023-02-14T11:29:47.985Z,28.90
2023-02-14T11:32:22.879Z,29.20
2023-02-14T11:34:59.698Z,34.07
2023-02-14T11:37:39.805Z,29.70
2023-02-14T11:40:07.834Z,28.33
2023-02-14T11:42:44.468Z,32.57
2023-02-14T11:45:35.390Z,32.20
2023-02-14T11:48:22.386Z,31.93
2023-02-14T11:51:13.983Z,30.70
2023-02-14T11:53:54.816Z,29.43
2023-02-14T11:56:23.738Z,32.93
2023-02-14T11:58:58.364Z,29.50
2023-02-14T12:01:31.442Z,29.83
2023-02-14T12:04:04.546Z,31.33
2023-02-14T12:06:34.641Z,30.03
2023-02-14T12:09:13.668Z,29.83
2023-02-14T12:11:40.580Z,28.73
2023-02-14T12:14:21.674Z,30.63
2023-02-14T12:17:00.761Z,30.83
2023-02-14T12:19:44.453Z,33.00
2023-02-14T12:22:18.898Z,29.03
2023-02-14T12:25:12.270Z,34.70
2023-02-14T12:28:04.141Z,35.37
2023-02-14T12:30:34.561Z,31.10
2023-02-14T12:33:01.788Z,32.83
2023-02-14T12:35:57.273Z,34.80
2023-02-14T12:39:11.653Z,33.33
2023-02-14T12:42:00.014Z,33.57
2023-02-14T12:44:56.569Z,32.97
2023-02-14T12:47:47.429Z,31.33
2023-02-14T12:50:29.481Z,31.60
2023-02-14T12:53:49.107Z,30.73
2023-02-14T12:56:28.281Z,32.93
2023-02-14T12:59:40.708Z,36.10
2023-02-14T13:02:47.627Z,31.73
2023-02-14T13:05:54.690Z,36.40
2023-02-14T13:08:28.362Z,35.10
2023-02-14T13:11:05.181Z,33.47
2023-02-14T13:14:05.725Z,37.33
2023-02-14T13:16:54.552Z,37.20
2023-02-14T13:19:53.795Z,33.60
2023-02-14T13:22:24.471Z,34.53
2023-02-14T13:24:57.883Z,35.60
2023-02-14T13:27:31.538Z,34.20
2023-02-14T13:30:04.182Z,35.27
2023-02-14T13:32:39.295Z,36.23
2023-02-14T13:35:07.809Z,35.20
2023-02-14T13:37:36.727Z,36.07
2023-02-14T13:40:17.367Z,35.37
2023-02-14T13:42:47.665Z,31.00
2023-02-14T13:45:35.152Z,33.03
2023-02-14T13:48:18.998Z,31.67
2023-02-14T13:51:02.255Z,35.07
2023-02-14T13:53:52.477Z,33.13
2023-02-14T13:56:19.184Z,32.10
2023-02-14T13:58:53.963Z,31.77
2023-02-14T14:01:50.138Z,32.47
2023-02-14T14:04:30.137Z,31.17
2023-02-14T14:07:02.841Z,29.77
2023-02-14T14:09:44.849Z,30.53
2023-02-14T14:12:26.993Z,30.13
2023-02-14T14:15:13.215Z,31.20
2023-02-14T14:17:50.530Z,32.83
2023-02-14T14:20:18.664Z,31.03
2023-02-14T14:22:54.594Z,30.50
2023-02-14T14:25:42.511Z,28.07
2023-02-14T14:28:20.329Z,31.27
2023-02-14T14:30:48.003Z,31.73
2023-02-14T14:33:16.957Z,32.57
2023-02-14T14:35:59.528Z,32.57
2023-02-14T14:38:27.384Z,30.30
2023-02-14T14:40:55.264Z,28.30
2023-02-14T14:43:36.466Z,30.20
2023-02-14T14:46:04.858Z,31.47
2023-02-14T14:48:49.183Z,33.50
2023-02-14T14:51:28.442Z,31.27
2023-02-14T14:54:13.230Z,31.73
2023-02-14T14:56:56.050Z,31.00
2023-02-14T14:59:25.579Z,32.67
2023-02-14T15:01:54.333Z,27.47
2023-02-14T15:04:33.703Z,28.93
2023-02-14T15:07:34.323Z,26.83
2023-02-14T15:10:02.004Z,31.60
2023-02-14T15:12:47.783Z,30.87
2023-02-14T15:15:17.893Z,29.70
2023-02-14T15:17:46.435Z,28.10
2023-02-14T15:20:23.568Z,28.73
2023-02-14T15:22:52.969Z,26.80
2023-02-14T15:25:49.134Z,34.33
2023-02-14T15:28:38.510Z,31.17
2023-02-14T15:31:07.214Z,34.50
2023-02-14T15:33:34.903Z,28.93
2023-02-14T15:36:07.946Z,30.37
2023-02-14T15:38:39.591Z,30.07
2023-02-14T15:41:07.650Z,29.50
2023-02-14T15:43:37.803Z,29.40
2023-02-14T15:46:27.166Z,29.80
2023-02-14T15:48:55.781Z,29.80
2023-02-14T15:51:28.153Z,30.50
2023-02-14T15:54:02.199Z,30.73
2023-02-14T15:56:43.049Z,30.03
2023-02-14T15:59:19.589Z,27.37
2023-02-14T16:02:37.688Z,26.83
2023-02-14T16:05:18.902Z,25.40
2023-02-14T16:08:26.542Z,24.90
2023-02-14T16:11:14.540Z,27.93
2023-02-14T16:13:44.865Z,27.90
2023-02-14T16:16:14.540Z,32.60
2023-02-14T16:18:56.654Z,28.50
2023-02-14T16:21:33.040Z,26.43
2023-02-14T16:24:06.527Z,29.77
2023-02-14T16:26:35.476Z,27.40
2023-02-14T16:29:06.222Z,29.63
2023-02-14T16:31:33.830Z,30.07
2023-02-14T16:34:00.934Z,27.83
2023-02-14T16:36:33.641Z,29.97
2023-02-14T16:39:05.002Z,28.00
2023-02-14T16:41:34.137Z,28.30
2023-02-14T16:44:01.098Z,27.83
2023-02-14T16:46:33.351Z,31.80
2023-02-14T16:49:00.344Z,27.63
2023-02-14T16:51:33.585Z,27.87
2023-02-14T16:54:06.470Z,30.07
2023-02-14T16:56:42.544Z,30.10
2023-02-14T16:59:09.451Z,30.23
2023-02-14T17:01:36.725Z,30.07
2023-02-14T17:04:03.666Z,30.90
2023-02-14T17:06:32.411Z,26.83
2023-02-14T17:09:05.703Z,27.13
2023-02-14T17:11:36.011Z,28.40
2023-02-14T17:14:02.909Z,27.90
2023-02-14T17:16:31.695Z,26.60
2023-02-14T17:18:59.078Z,27.07
2023-02-14T17:21:26.000Z,26.57
2023-02-14T17:23:53.387Z,29.33
2023-02-14T17:26:20.306Z,28.37
2023-02-14T17:28:47.298Z,27.50
2023-02-14T17:31:14.650Z,26.20
2023-02-14T17:33:41.626Z,27.13
2023-02-14T17:36:12.189Z,27.20
2023-02-14T17:38:40.284Z,28.97
2023-02-14T17:41:22.201Z,26.37
2023-02-14T17:43:50.519Z,30.97
2023-02-14T17:46:20.710Z,29.50
2023-02-14T17:48:49.017Z,32.10
2023-02-14T17:51:18.032Z,31.17
2023-02-14T17:53:44.929Z,31.00
2023-02-14T17:56:24.206Z,29.60
2023-02-14T17:58:52.865Z,27.70
2023-02-14T18:01:31.526Z,27.07
2023-02-14T18:03:58.611Z,28.60
2023-02-14T18:06:26.640Z,27.67
2023-02-14T18:08:56.888Z,29.03
2023-02-14T18:11:27.196Z,28.87
2023-02-14T18:13:59.328Z,26.33
2023-02-14T18:16:26.736Z,24.40
2023-02-14T18:18:54.872Z,25.57
2023-02-14T18:21:23.171Z,27.20
2023-02-14T18:23:50.143Z,25.77
2023-02-14T18:26:18.520Z,24.07
2023-02-14T18:28:45.772Z,26.33
2023-02-14T18:31:16.504Z,24.43
2023-02-14T18:33:44.281Z,26.57
2023-02-14T18:36:15.461Z,26.07
2023-02-14T18:38:44.897Z,25.87
2023-02-14T18:41:15.512Z,24.67
2023-02-14T18:43:44.489Z,24.60
2023-02-14T18:46:21.345Z,27.73
2023-02-14T18:48:48.831Z,24.97
2023-02-14T18:51:24.999Z,23.90
2023-02-14T18:53:54.392Z,24.20
2023-02-14T18:56:25.397Z,27.70
2023-02-14T18:59:00.229Z,27.07
2023-02-14T19:01:31.357Z,25.50
2023-02-14T19:04:00.442Z,26.00
2023-02-14T19:06:30.638Z,25.47
2023-02-14T19:08:58.354Z,28.30
2023-02-14T19:11:28.664Z,29.37
2023-02-14T19:13:59.350Z,28.17
2023-02-14T19:16:30.183Z,28.00
2023-02-14T19:18:58.950Z,28.13
2023-02-14T19:21:30.732Z,27.40
2023-02-14T19:23:58.384Z,27.17
2023-02-14T19:26:29.957Z,25.67
2023-02-14T19:29:00.318Z,26.73
2023-02-14T19:31:27.614Z,29.13
2023-02-14T19:33:54.872Z,25.37
2023-02-14T19:36:23.538Z,26.27
2023-02-14T19:38:52.813Z,27.50
2023-02-14T19:41:27.131Z,28.73
2023-02-14T19:43:57.904Z,27.27
2023-02-14T19:46:26.213Z,30.67
2023-02-14T19:48:53.138Z,34.00
2023-02-14T19:51:32.845Z,29.50
2023-02-14T19:54:03.218Z,31.77
2023-02-14T19:56:36.747Z,31.33
2023-02-14T19:59:08.994Z,32.57
2023-02-14T20:01:48.605Z,29.33
2023-02-14T20:04:19.946Z,30.37
2023-02-14T20:06:47.214Z,28.87
2023-02-14T20:09:14.964Z,28.67
2023-02-14T20:11:51.077Z,26.70
2023-02-14T20:14:27.366Z,27.47
2023-02-14T20:16:56.941Z,26.17
2023-02-14T20:19:29.358Z,26.27
2023-02-14T20:21:56.336Z,27.67
2023-02-14T20:24:27.949Z,28.40
2023-02-14T20:26:55.535Z,28.10
2023-02-14T20:29:24.668Z,27.53
2023-02-14T20:31:54.479Z,27.10
2023-02-14T20:34:21.785Z,28.20
2023-02-14T20:36:52.949Z,27.40
2023-02-14T20:39:21.838Z,27.17
2023-02-14T20:41:51.818Z,28.10
2023-02-14T20:44:21.395Z,28.93
2023-02-14T20:46:51.697Z,28.43
2023-02-14T20:49:20.746Z,27.80
2023-02-14T20:51:51.760Z,28.70
2023-02-14T20:54:21.431Z,29.00
2023-02-14T20:56:48.682Z,26.10
2023-02-14T20:59:15.618Z,27.83
2023-02-14T21:01:42.647Z,30.53
2023-02-14T21:04:09.600Z,31.27
2023-02-14T21:06:38.947Z,29.43
2023-02-14T21:09:06.836Z,29.10
2023-02-14T21:11:33.706Z,31.17
2023-02-14T21:14:02.049Z,28.73
2023-02-14T21:16:29.692Z,28.23
2023-02-14T21:19:01.590Z,29.17
2023-02-14T21:21:32.446Z,26.73
2023-02-14T21:24:03.144Z,28.60
2023-02-14T21:26:30.066Z,28.73
2023-02-14T21:28:56.965Z,29.20
2023-02-14T21:31:25.664Z,29.17
2023-02-14T21:33:55.670Z,28.63
2023-02-14T21:36:25.134Z,29.97
2023-02-14T21:38:52.552Z,26.27
2023-02-14T21:41:23.116Z,27.00
2023-02-14T21:43:55.121Z,27.70
2023-02-14T21:46:27.534Z,27.10
2023-02-14T21:49:13.980Z,28.50
2023-02-14T21:51:41.803Z,28.03
2023-02-14T21:54:09.404Z,28.40
2023-02-14T21:56:37.810Z,27.53
2023-02-14T21:59:05.380Z,27.83
2023-02-14T22:01:35.972Z,27.50
2023-02-14T22:04:05.165Z,26.70
2023-02-14T22:06:34.952Z,26.73
2023-02-14T22:09:01.810Z,25.30
2023-02-14T22:11:29.719Z,25.97
2023-02-14T22:13:56.720Z,26.60
2023-02-14T22:16:24.640Z,27.70
2023-02-14T22:18:52.493Z,27.40
2023-02-14T22:21:24.015Z,28.60
2023-02-14T22:23:51.261Z,27.17
2023-02-14T22:26:27.523Z,26.10
2023-02-14T22:28:59.075Z,27.20
2023-02-14T22:31:29.417Z,27.57
2023-02-14T22:33:56.826Z,27.17
2023-02-14T22:36:23.703Z,26.67
2023-02-14T22:38:50.762Z,26.50
2023-02-14T22:41:22.363Z,25.70
2023-02-14T22:43:49.595Z,28.60
2023-02-14T22:46:23.193Z,27.47
2023-02-14T22:48:51.304Z,26.03
2023-02-14T22:51:26.475Z,26.20
2023-02-14T22:53:59.748Z,28.77
2023-02-14T22:56:30.930Z,27.03
2023-02-14T22:59:04.812Z,28.00
2023-02-14T23:01:33.568Z,25.60
2023-02-14T23:04:02.473Z,26.40
2023-02-14T23:06:31.371Z,28.60
2023-02-14T23:08:58.746Z,28.60
2023-02-14T23:11:29.713Z,29.40
2023-02-14T23:14:15.805Z,28.67
2023-02-14T23:17:03.525Z,28.30
2023-02-14T23:19:52.251Z,30.20
2023-02-14T23:22:31.266Z,27.20
2023-02-14T23:25:01.832Z,28.90
2023-02-14T23:27:37.873Z,27.00
2023-02-14T23:30:07.128Z,30.67
2023-02-14T23:32:34.189Z,27.90
2023-02-14T23:35:01.051Z,27.33
2023-02-14T23:37:27.939Z,25.37
2023-02-14T23:39:54.796Z,27.37
2023-02-14T23:42:21.651Z,28.40
2023-02-14T23:44:49.076Z,27.40
2023-02-14T23:47:16.240Z,25.00
2023-02-14T23:49:43.726Z,26.70
2023-02-14T23:52:13.052Z,26.10
2023-02-14T23:54:40.025Z,24.40
2023-02-14T23:57:07.959Z,25.77
2023-02-14T23:59:34.806Z,25.13
